Time;durP1;ratioP1;P1;durP2;ratioP2;P2;SDS_P1;SDS_P2;PMS_P1;PMS_P2;Temp;Humidity;BMP_temperature;BMP_pressure;BME280_temperature;BME280_humidity;BME280_pressure;Samples;Min_cycle;Max_cycle;Signal;HPM_P1;HPM_P2
2021/01/28 00:01:09;;;;;;;9.05;3.40;;;7.00;97.10;;;;;;5074031;28;20175;-62
2021/01/28 00:03:37;;;;;;;5.32;3.35;;;6.90;97.10;;;;;;5072798;28;20048;-62
2021/01/28 00:06:06;;;;;;;5.43;3.78;;;6.90;97.10;;;;;;5074147;28;20044;-62
2021/01/28 00:08:34;;;;;;;6.35;3.80;;;6.80;97.10;;;;;;5073074;28;20052;-61
2021/01/28 00:11:04;;;;;;;5.03;3.70;;;6.80;97.10;;;;;;5073862;28;20508;-61
2021/01/28 00:13:31;;;;;;;4.93;3.28;;;6.80;97.10;;;;;;5072778;28;20041;-62
2021/01/28 00:15:58;;;;;;;6.45;4.03;;;6.80;97.00;;;;;;5072661;28;20071;-61
2021/01/28 00:18:26;;;;;;;6.88;3.75;;;6.80;96.90;;;;;;5073613;28;20486;-61
2021/01/28 00:20:53;;;;;;;8.27;4.35;;;6.80;96.80;;;;;;5073951;28;20071;-61
2021/01/28 00:23:21;;;;;;;8.55;4.93;;;6.80;96.70;;;;;;5073841;28;20067;-61
2021/01/28 00:25:51;;;;;;;8.43;4.93;;;6.70;96.60;;;;;;5073694;28;20560;-61
2021/01/28 00:28:22;;;;;;;7.78;4.80;;;6.70;96.50;;;;;;5072722;28;20049;-60
2021/01/28 00:30:52;;;;;;;10.55;4.93;;;6.70;96.40;;;;;;5072557;28;20044;-61
2021/01/28 00:33:24;;;;;;;8.25;4.38;;;6.70;96.50;;;;;;5073771;28;20491;-61
2021/01/28 00:35:54;;;;;;;5.47;3.97;;;6.60;96.50;;;;;;5073774;28;20405;-61
2021/01/28 00:38:30;;;;;;;9.63;5.63;;;6.60;96.70;;;;;;5073476;28;20087;-61
2021/01/28 00:40:59;;;;;;;7.43;5.20;;;6.60;96.70;;;;;;5073860;28;20045;-61
2021/01/28 00:43:30;;;;;;;10.88;6.00;;;6.60;96.80;;;;;;5073561;28;20294;-61
2021/01/28 00:45:59;;;;;;;12.95;6.82;;;6.60;96.80;;;;;;5073673;28;20093;-61
2021/01/28 00:48:27;;;;;;;9.50;5.15;;;6.50;96.50;;;;;;5073240;28;20063;-61
2021/01/28 00:50:58;;;;;;;10.63;7.97;;;6.50;96.70;;;;;;5073647;28;20041;-61
2021/01/28 00:53:26;;;;;;;10.63;6.57;;;6.50;96.60;;;;;;5073620;28;20048;-61
2021/01/28 00:55:56;;;;;;;7.40;4.75;;;6.50;96.40;;;;;;5073533;28;20513;-61
2021/01/28 00:58:33;;;;;;;7.78;4.35;;;6.50;96.60;;;;;;5072405;28;20429;-61
2021/01/28 01:01:01;;;;;;;6.75;4.15;;;6.50;96.40;;;;;;5072294;28;20059;-61
2021/01/28 01:03:28;;;;;;;6.88;4.10;;;6.50;96.60;;;;;;5073171;28;20048;-62
2021/01/28 01:05:58;;;;;;;8.45;4.30;;;6.50;96.80;;;;;;5072367;28;20079;-61
2021/01/28 01:08:33;;;;;;;6.55;3.80;;;6.40;96.80;;;;;;5072217;28;20048;-61
2021/01/28 01:11:15;;;;;;;8.70;4.22;;;6.40;96.90;;;;;;5072396;28;20049;-61
2021/01/28 01:13:46;;;;;;;9.38;4.72;;;6.40;96.80;;;;;;5073153;28;20056;-61
2021/01/28 01:16:19;;;;;;;8.80;4.97;;;6.40;96.70;;;;;;5072164;28;20669;-62
2021/01/28 01:18:53;;;;;;;6.20;5.22;;;6.40;96.60;;;;;;5072412;28;20055;-61
2021/01/28 01:21:22;;;;;;;6.07;3.92;;;6.40;96.90;;;;;;5073243;28;20064;-62
2021/01/28 01:24:06;;;;;;;8.05;4.00;;;6.30;97.00;;;;;;5072062;28;20059;-62
2021/01/28 01:26:33;;;;;;;5.13;3.63;;;6.30;97.10;;;;;;5073156;28;20079;-61
2021/01/28 01:29:03;;;;;;;6.38;4.07;;;6.30;97.00;;;;;;5071951;28;20489;-61
2021/01/28 01:31:49;;;;;;;6.70;4.00;;;6.20;97.00;;;;;;5072068;28;20064;-62
2021/01/28 01:34:24;;;;;;;7.72;4.60;;;6.20;96.90;;;;;;5073046;28;20410;-61
2021/01/28 01:36:54;;;;;;;8.57;4.20;;;6.20;96.90;;;;;;5071828;28;20048;-61
2021/01/28 01:39:24;;;;;;;4.95;3.88;;;6.20;96.80;;;;;;5071605;28;20049;-61
2021/01/28 01:41:51;;;;;;;6.45;3.00;;;6.20;97.00;;;;;;5072920;28;20098;-61
2021/01/28 01:44:24;;;;;;;6.95;3.63;;;6.20;97.20;;;;;;5072982;28;20052;-61
2021/01/28 01:47:22;;;;;;;9.50;3.10;;;6.20;97.30;;;;;;5072840;28;20048;-61
2021/01/28 01:49:50;;;;;;;5.68;3.03;;;6.10;97.20;;;;;;5071870;28;20094;-61
2021/01/28 01:52:20;;;;;;;6.65;3.55;;;6.10;97.30;;;;;;5072297;28;20053;-61
2021/01/28 01:54:48;;;;;;;4.07;2.47;;;6.10;97.50;;;;;;5071493;28;20052;-62
2021/01/28 01:57:22;;;;;;;4.43;2.97;;;6.10;97.30;;;;;;5071640;28;20052;-61
2021/01/28 02:00:13;;;;;;;7.72;3.28;;;6.00;97.30;;;;;;5072839;28;20036;-61
2021/01/28 02:03:08;;;;;;;5.90;3.03;;;6.00;97.30;;;;;;5076620;28;20192;-61
2021/01/28 02:06:03;;;;;;;4.30;2.50;;;6.00;97.60;;;;;;5076464;28;20056;-61
2021/01/28 02:08:51;;;;;;;4.35;2.42;;;6.00;97.50;;;;;;5076305;28;20041;-61
2021/01/28 02:11:40;;;;;;;5.47;3.85;;;6.00;97.50;;;;;;5075758;28;20080;-61
2021/01/28 02:14:25;;;;;;;4.68;2.88;;;6.00;97.50;;;;;;5075007;28;20447;-61
2021/01/28 02:17:04;;;;;;;3.88;2.65;;;6.00;97.60;;;;;;5074978;28;20041;-61
2021/01/28 02:20:38;;;;;;;4.55;2.28;;;6.00;97.50;;;;;;5076278;28;20048;-61
2021/01/28 02:23:22;;;;;;;2.72;1.77;;;6.00;97.10;;;;;;5069287;28;20053;-61
2021/01/28 02:25:53;;;;;;;2.80;1.90;;;5.90;97.10;;;;;;5075313;28;20083;-61
2021/01/28 02:28:31;;;;;;;4.00;2.13;;;6.00;96.90;;;;;;5075021;28;20162;-62
2021/01/28 02:31:04;;;;;;;4.70;1.80;;;6.00;96.80;;;;;;5074855;28;20106;-61
2021/01/28 02:33:55;;;;;;;3.42;2.60;;;6.00;96.60;;;;;;5075781;28;20051;-61
2021/01/28 02:36:44;;;;;;;2.95;1.98;;;6.00;96.80;;;;;;5075982;28;20052;-61
2021/01/28 02:39:29;;;;;;;4.43;2.05;;;6.00;96.70;;;;;;5075743;28;20101;-61
2021/01/28 02:42:29;;;;;;;5.50;2.40;;;6.00;96.90;;;;;;5074530;28;20045;-62
2021/01/28 02:45:08;;;;;;;3.13;2.00;;;6.00;96.90;;;;;;5074815;28;20128;-61
2021/01/28 02:48:03;;;;;;;3.25;2.28;;;6.00;96.90;;;;;;5075709;28;20127;-61
2021/01/28 02:50:56;;;;;;;4.68;2.20;;;6.00;96.90;;;;;;5074778;28;20048;-61
2021/01/28 02:53:33;;;;;;;5.47;3.20;;;6.00;96.80;;;;;;5074063;28;20055;-61
2021/01/28 02:56:00;;;;;;;4.03;2.20;;;6.00;96.90;;;;;;5074397;28;20055;-61
2021/01/28 02:58:27;;;;;;;3.80;2.75;;;5.90;96.90;;;;;;5074122;28;20044;-61
2021/01/28 03:01:09;;;;;;;3.00;2.00;;;6.00;97.00;;;;;;5074171;28;20049;-60
2021/01/28 03:03:39;;;;;;;7.15;3.70;;;5.90;96.80;;;;;;5074379;28;20044;-61
2021/01/28 03:06:08;;;;;;;3.63;2.10;;;5.90;96.80;;;;;;5074171;28;20049;-60
2021/01/28 03:08:36;;;;;;;5.00;2.40;;;5.90;96.90;;;;;;5075129;28;20048;-60
2021/01/28 03:11:24;;;;;;;4.30;2.17;;;5.90;96.80;;;;;;5073863;28;20053;-61
2021/01/28 03:13:53;;;;;;;6.20;2.10;;;5.90;96.70;;;;;;5073807;28;20478;-61
2021/01/28 03:16:29;;;;;;;4.25;1.75;;;5.90;96.80;;;;;;5073806;28;20048;-61
2021/01/28 03:19:25;;;;;;;4.25;1.80;;;5.90;96.70;;;;;;5070183;28;20076;-61
2021/01/28 03:22:01;;;;;;;5.05;2.47;;;5.80;96.70;;;;;;5074021;28;20173;-61
2021/01/28 03:24:36;;;;;;;3.33;2.03;;;5.80;96.70;;;;;;5075236;28;20056;-61
2021/01/28 03:27:18;;;;;;;3.17;2.03;;;5.80;96.70;;;;;;5073881;28;20407;-61
2021/01/28 03:29:52;;;;;;;3.13;1.98;;;5.80;96.70;;;;;;5073675;28;20509;-61
2021/01/28 03:32:22;;;;;;;3.60;1.92;;;5.80;96.90;;;;;;5073406;28;20047;-61
2021/01/28 03:34:53;;;;;;;4.10;1.92;;;5.80;97.00;;;;;;5073456;28;20059;-60
2021/01/28 03:37:21;;;;;;;6.75;2.30;;;5.70;97.10;;;;;;5073504;28;20051;-61
2021/01/28 03:39:54;;;;;;;4.63;1.95;;;5.70;97.20;;;;;;5073538;28;20040;-61
2021/01/28 03:42:24;;;;;;;5.63;2.13;;;5.70;97.30;;;;;;5073214;28;20132;-61
2021/01/28 03:44:54;;;;;;;3.78;2.10;;;5.70;97.30;;;;;;5073494;28;20064;-61
2021/01/28 03:47:34;;;;;;;4.32;2.30;;;5.70;97.30;;;;;;5073222;28;20049;-61
2021/01/28 03:50:32;;;;;;;4.18;2.70;;;5.60;97.30;;;;;;5073951;28;20547;-61
2021/01/28 03:53:22;;;;;;;5.32;2.70;;;5.60;97.50;;;;;;5073762;28;20053;-61
2021/01/28 03:56:24;;;;;;;5.25;2.75;;;5.60;97.70;;;;;;5072862;28;20380;-61
2021/01/28 03:58:51;;;;;;;4.25;1.90;;;5.60;97.80;;;;;;5074146;28;20128;-61
2021/01/28 04:01:41;;;;;;;4.25;2.33;;;5.60;97.80;;;;;;5059001;28;20048;-61
2021/01/28 04:04:31;;;;;;;5.43;2.28;;;5.60;97.80;;;;;;5073103;28;20060;-61
2021/01/28 04:07:18;;;;;;;4.43;2.13;;;5.60;98.10;;;;;;5074664;28;20059;-61
2021/01/28 04:09:47;;;;;;;4.30;2.10;;;5.50;98.10;;;;;;5073203;28;20040;-61
2021/01/28 04:12:24;;;;;;;3.47;2.13;;;5.50;98.10;;;;;;5072967;28;20056;-61
2021/01/28 04:15:08;;;;;;;3.60;2.03;;;5.50;98.40;;;;;;5072890;28;20056;-61
2021/01/28 04:17:47;;;;;;;4.95;2.60;;;5.50;98.40;;;;;;5072909;28;20052;-61
2021/01/28 04:20:31;;;;;;;3.25;2.25;;;5.50;98.50;;;;;;5072639;28;20139;-61
2021/01/28 04:23:08;;;;;;;3.75;1.98;;;5.50;98.50;;;;;;5073470;28;20402;-61
2021/01/28 04:26:04;;;;;;;4.65;2.10;;;5.50;98.70;;;;;;5074115;28;20495;-61
2021/01/28 04:28:34;;;;;;;4.00;2.50;;;5.50;98.70;;;;;;5072632;28;20122;-61
2021/01/28 04:31:23;;;;;;;3.17;1.98;;;5.60;98.70;;;;;;5073566;28;20132;-61
2021/01/28 04:33:56;;;;;;;2.38;1.40;;;5.50;99.00;;;;;;5072448;28;20044;-61
2021/01/28 04:36:27;;;;;;;8.63;1.63;;;5.60;99.10;;;;;;5072745;28;20045;-61
2021/01/28 04:39:16;;;;;;;4.07;1.63;;;5.60;99.10;;;;;;5073586;28;20402;-61
2021/01/28 04:41:52;;;;;;;2.33;1.50;;;5.60;99.30;;;;;;5072461;28;20070;-61
2021/01/28 04:44:22;;;;;;;2.35;1.45;;;5.60;99.30;;;;;;5073419;28;20076;-61
2021/01/28 04:47:03;;;;;;;2.13;1.38;;;5.60;99.40;;;;;;5057952;28;20052;-61
2021/01/28 04:49:59;;;;;;;2.00;1.60;;;5.60;99.50;;;;;;5073657;28;20498;-61
2021/01/28 04:52:38;;;;;;;2.83;1.50;;;5.70;99.50;;;;;;5073339;28;20048;-60
2021/01/28 04:55:46;;;;;;;3.45;1.50;;;5.70;99.40;;;;;;5073627;28;20059;-61
2021/01/28 04:58:16;;;;;;;2.70;1.77;;;5.70;99.40;;;;;;5072223;28;20403;-61
2021/01/28 05:01:06;;;;;;;2.35;1.42;;;5.70;99.30;;;;;;5075613;28;20453;-61
2021/01/28 05:04:10;;;;;;;1.83;1.10;;;5.70;99.40;;;;;;5063902;28;20048;-61
2021/01/28 05:07:07;;;;;;;1.63;1.20;;;5.80;99.50;;;;;;5072435;28;20055;-61
2021/01/28 05:10:01;;;;;;;1.10;1.00;;;5.70;99.40;;;;;;5073478;28;20048;-61
2021/01/28 05:12:59;;;;;;;1.25;0.95;;;5.70;99.50;;;;;;5073584;28;20076;-61
2021/01/28 05:15:44;;;;;;;2.40;1.40;;;5.70;99.50;;;;;;5073297;28;20057;-61
2021/01/28 05:18:41;;;;;;;3.13;1.60;;;5.70;99.70;;;;;;5072012;28;20483;-61
2021/01/28 05:21:18;;;;;;;2.63;1.33;;;5.70;99.60;;;;;;5073105;28;20410;-61
2021/01/28 05:24:24;;;;;;;3.30;1.30;;;5.70;99.70;;;;;;5072267;28;20060;-61
2021/01/28 05:26:51;;;;;;;1.45;1.10;;;5.70;99.80;;;;;;5072162;28;20053;-61
2021/01/28 05:29:28;;;;;;;2.25;1.20;;;5.80;99.80;;;;;;5073230;28;20479;-62
2021/01/28 05:32:42;;;;;;;1.05;0.90;;;5.70;99.80;;;;;;5072223;28;20052;-61
2021/01/28 05:35:38;;;;;;;3.20;1.27;;;5.80;99.90;;;;;;5070293;28;20503;-61
2021/01/28 05:38:22;;;;;;;2.80;1.58;;;5.80;99.70;;;;;;5076040;28;20098;-61
2021/01/28 05:41:30;;;;;;;;;;;5.70;99.70;;;;;;5080002;28;20565;-62
2021/01/28 05:44:22;;;;;;;1.50;1.10;;;5.80;99.70;;;;;;5075801;28;20014;-61
2021/01/28 05:47:11;;;;;;;3.90;1.33;;;5.80;99.90;;;;;;5075625;28;20045;-61
2021/01/28 05:50:28;;;;;;;1.90;0.90;;;5.80;99.80;;;;;;5075713;28;20048;-61
2021/01/28 05:53:11;;;;;;;3.28;1.50;;;5.80;99.70;;;;;;5075382;28;20059;-61
2021/01/28 05:55:46;;;;;;;2.10;1.10;;;5.70;99.80;;;;;;5075450;28;20086;-61
2021/01/28 05:58:35;;;;;;;2.35;1.38;;;5.80;99.90;;;;;;5075483;28;20049;-61
2021/01/28 06:01:43;;;;;;;1.48;1.00;;;5.80;99.90;;;;;;5075325;28;20478;-61
2021/01/28 06:04:54;;;;;;;2.40;1.17;;;5.80;99.70;;;;;;5075395;28;20521;-61
2021/01/28 06:08:04;;;;;;;1.45;1.00;;;5.90;99.60;;;;;;5075492;28;20418;-61
2021/01/28 06:11:27;;;;;;;1.35;1.23;;;5.90;99.70;;;;;;5073031;28;20048;-61
2021/01/28 06:14:37;;;;;;;2.15;1.52;;;5.80;99.70;;;;;;5074990;28;20067;-61
2021/01/28 06:17:23;;;;;;;1.15;1.00;;;5.80;99.90;;;;;;5076400;28;20123;-61
2021/01/28 06:20:23;;;;;;;4.13;1.40;;;5.80;99.90;;;;;;5075737;28;20135;-61
2021/01/28 06:23:10;;;;;;;0.82;0.82;;;5.90;99.90;;;;;;5074975;28;20074;-61
2021/01/28 06:26:03;;;;;;;1.75;1.42;;;6.10;99.90;;;;;;5075512;28;20071;-61
2021/01/28 06:28:50;;;;;;;2.25;1.48;;;6.80;99.50;;;;;;5074660;28;20057;-61
2021/01/28 06:31:38;;;;;;;1.45;1.02;;;7.60;98.10;;;;;;5075153;28;20048;-61
2021/01/28 06:35:03;;;;;;;1.20;0.98;;;8.50;96.30;;;;;;5075421;28;20045;-61
2021/01/28 06:38:20;;;;;;;2.65;1.20;;;9.50;94.30;;;;;;5078819;28;20056;-61
2021/01/28 06:41:16;;;;;;;1.38;1.00;;;10.60;92.70;;;;;;5077951;28;20055;-61
2021/01/28 06:44:14;;;;;;;2.78;1.67;;;11.50;90.90;;;;;;5074324;28;20091;-61
2021/01/28 06:47:00;;;;;;;1.63;1.00;;;12.30;89.10;;;;;;5057679;28;20049;-62
2021/01/28 06:49:50;;;;;;;1.63;1.30;;;13.00;85.70;;;;;;5075653;28;20049;-61
2021/01/28 06:52:36;;;;;;;6.63;2.75;;;13.80;82.10;;;;;;5075564;28;20052;-61
2021/01/28 06:55:07;;;;;;;1.92;1.30;;;14.40;78.90;;;;;;5074455;28;20044;-62
2021/01/28 06:58:20;;;;;;;4.32;1.52;;;15.00;75.80;;;;;;5077631;28;20501;-62
2021/01/28 07:01:07;;;;;;;7.47;1.58;;;15.60;73.00;;;;;;5074205;28;20045;-62
2021/01/28 07:03:42;;;;;;;2.92;1.60;;;16.20;70.40;;;;;;5074207;28;20055;-61
2021/01/28 07:06:50;;;;;;;2.95;1.10;;;16.80;68.20;;;;;;5075309;28;20052;-61
2021/01/28 07:09:52;;;;;;;2.47;1.52;;;17.40;65.40;;;;;;5075416;28;20044;-62
2021/01/28 07:12:26;;;;;;;5.28;2.03;;;18.00;63.30;;;;;;5074175;28;20040;-61
2021/01/28 07:15:27;;;;;;;2.70;1.35;;;18.40;61.50;;;;;;5078657;28;20048;-61
2021/01/28 07:18:39;;;;;;;2.35;1.15;;;18.80;60.00;;;;;;5075161;28;20044;-61
2021/01/28 07:21:31;;;;;;;1.92;1.50;;;19.30;58.70;;;;;;5074915;28;20372;-61
2021/01/28 07:24:19;;;;;;;5.40;1.40;;;19.70;57.70;;;;;;5073770;28;20048;-62
2021/01/28 07:26:54;;;;;;;2.13;1.33;;;19.90;56.70;;;;;;5074174;28;20040;-61
2021/01/28 07:29:44;;;;;;;3.80;2.17;;;19.90;55.90;;;;;;5074892;28;20056;-61
2021/01/28 07:32:26;;;;;;;7.65;1.55;;;19.90;55.60;;;;;;5074694;28;20036;-61
2021/01/28 07:35:27;;;;;;;3.22;1.42;;;19.60;55.60;;;;;;5073608;28;20059;-61
2021/01/28 07:38:25;;;;;;;3.17;2.03;;;19.30;55.90;;;;;;5058735;28;20127;-61
2021/01/28 07:41:20;;;;;;;5.03;2.80;;;18.90;56.20;;;;;;5076806;28;20052;-61
2021/01/28 07:44:24;;;;;;;9.38;3.83;;;18.50;56.90;;;;;;5073104;28;20399;-61
2021/01/28 07:47:00;;;;;;;7.47;4.10;;;18.20;57.10;;;;;;5073267;28;20056;-61
2021/01/28 07:49:59;;;;;;;5.35;3.38;;;17.90;57.60;;;;;;5073299;28;20063;-61
2021/01/28 07:52:52;;;;;;;4.88;3.28;;;17.70;58.30;;;;;;5073993;28;20068;-60
2021/01/28 07:55:38;;;;;;;6.05;2.30;;;17.60;58.60;;;;;;5074256;28;20041;-60
2021/01/28 07:58:33;;;;;;;3.45;2.30;;;17.50;58.60;;;;;;5072579;28;20110;-61
2021/01/28 08:01:10;;;;;;;3.60;1.60;;;17.60;58.70;;;;;;5074352;28;20052;-61
2021/01/28 08:04:05;;;;;;;4.63;1.65;;;17.60;58.40;;;;;;5074252;28;20044;-61
2021/01/28 08:06:38;;;;;;;4.85;1.98;;;17.60;58.50;;;;;;5073008;28;20094;-61
2021/01/28 08:09:14;;;;;;;4.57;1.67;;;17.60;58.90;;;;;;5074223;28;20098;-61
2021/01/28 08:11:52;;;;;;;2.83;1.27;;;17.50;58.80;;;;;;5073839;28;20147;-61
2021/01/28 08:14:32;;;;;;;5.25;3.80;;;17.30;58.90;;;;;;5073791;28;20498;-61
2021/01/28 08:17:01;;;;;;;8.48;3.53;;;17.20;59.60;;;;;;5074312;28;20051;-61
2021/01/28 08:19:31;;;;;;;5.85;3.17;;;16.90;60.60;;;;;;5073875;28;20094;-61
2021/01/28 08:22:05;;;;;;;4.13;2.65;;;16.70;61.00;;;;;;5072757;28;20040;-61
2021/01/28 08:24:39;;;;;;;4.13;2.85;;;16.40;62.30;;;;;;5072749;28;20494;-61
2021/01/28 08:27:14;;;;;;;4.78;3.28;;;16.20;63.20;;;;;;5073824;28;20445;-61
2021/01/28 08:29:42;;;;;;;6.80;2.90;;;15.90;64.30;;;;;;5073854;28;20048;-61
2021/01/28 08:32:23;;;;;;;5.30;2.80;;;15.70;64.40;;;;;;5072710;28;20052;-61
2021/01/28 08:34:59;;;;;;;3.65;2.20;;;15.50;64.90;;;;;;5073677;28;20131;-61
2021/01/28 08:37:31;;;;;;;4.18;2.67;;;15.40;65.00;;;;;;5073628;28;20093;-61
2021/01/28 08:39:59;;;;;;;6.30;2.70;;;15.30;65.10;;;;;;5073803;28;20064;-61
2021/01/28 08:42:28;;;;;;;3.25;2.30;;;15.10;65.80;;;;;;5072587;28;20474;-61
2021/01/28 08:45:08;;;;;;;6.75;2.80;;;15.10;66.10;;;;;;5073721;28;20045;-61
2021/01/28 08:47:38;;;;;;;4.78;2.20;;;15.10;66.30;;;;;;5073564;28;20142;-61
2021/01/28 08:50:27;;;;;;;5.57;2.10;;;15.10;67.20;;;;;;5072244;28;20044;-61
2021/01/28 08:53:04;;;;;;;5.18;2.33;;;15.10;67.10;;;;;;5073290;28;20044;-59
2021/01/28 08:55:37;;;;;;;3.97;1.70;;;15.10;67.00;;;;;;5073734;28;20106;-61
2021/01/28 08:58:15;;;;;;;3.67;1.70;;;15.10;66.70;;;;;;5073562;28;20139;-61
2021/01/28 09:00:57;;;;;;;4.90;1.90;;;15.10;67.30;;;;;;5072283;28;20131;-61
2021/01/28 09:03:35;;;;;;;2.63;1.98;;;15.10;68.00;;;;;;5073442;28;20052;-61
2021/01/28 09:06:06;;;;;;;2.70;1.95;;;15.10;68.30;;;;;;5072472;28;20398;-61
2021/01/28 09:08:34;;;;;;;4.30;1.60;;;15.10;67.20;;;;;;5073891;28;20076;-61
2021/01/28 09:11:26;;;;;;;3.50;1.90;;;15.10;65.90;;;;;;5077394;28;20056;-61
2021/01/28 09:14:04;;;;;;;3.08;1.77;;;15.10;65.70;;;;;;5077312;28;20052;-61
2021/01/28 09:16:34;;;;;;;3.53;1.80;;;15.10;65.50;;;;;;5077409;28;20495;-62
2021/01/28 09:19:15;;;;;;;4.38;3.38;;;15.00;65.80;;;;;;5077346;28;20078;-62
2021/01/28 09:21:45;;;;;;;4.40;3.45;;;15.10;66.30;;;;;;5077513;28;20052;-62
2021/01/28 09:24:15;;;;;;;4.93;2.75;;;15.00;66.90;;;;;;5077157;28;20054;-61
2021/01/28 09:27:03;;;;;;;2.67;2.00;;;15.10;65.60;;;;;;5077151;28;20063;-61
2021/01/28 09:29:38;;;;;;;4.15;2.40;;;15.20;64.50;;;;;;5076953;28;20045;-61
2021/01/28 09:32:22;;;;;;;5.07;2.65;;;15.30;64.40;;;;;;5075831;28;20048;-61
2021/01/28 09:35:19;;;;;;;14.75;5.18;;;15.40;64.30;;;;;;5076806;28;20044;-62
2021/01/28 09:38:14;;;;;;;4.03;3.25;;;15.50;66.20;;;;;;5076815;28;20425;-61
2021/01/28 09:40:46;;;;;;;6.15;3.83;;;15.60;64.80;;;;;;5076872;28;20617;-63
2021/01/28 09:43:26;;;;;;;6.78;3.40;;;15.70;66.30;;;;;;5076729;28;20062;-61
2021/01/28 09:46:18;;;;;;;10.40;2.88;;;15.70;65.20;;;;;;5076663;28;20139;-61
2021/01/28 09:48:52;;;;;;;2.53;1.83;;;15.80;63.80;;;;;;5076540;28;20122;-61
2021/01/28 09:51:30;;;;;;;2.20;1.48;;;16.00;62.60;;;;;;5075734;28;20045;-61
2021/01/28 09:54:13;;;;;;;2.00;1.55;;;15.90;61.70;;;;;;5075107;28;20126;-61
2021/01/28 09:56:41;;;;;;;2.45;1.45;;;15.90;62.10;;;;;;5075093;28;20044;-60
2021/01/28 09:59:09;;;;;;;3.30;1.95;;;15.90;62.40;;;;;;5076109;28;20136;-59
2021/01/28 10:01:39;;;;;;;5.25;1.98;;;15.90;63.10;;;;;;5075967;28;20125;-59
2021/01/28 10:04:10;;;;;;;4.10;2.25;;;16.00;62.70;;;;;;5076440;28;20079;-59
2021/01/28 10:06:41;;;;;;;2.60;1.70;;;16.00;62.60;;;;;;5076455;28;20066;-59
2021/01/28 10:09:16;;;;;;;4.00;2.60;;;15.80;62.60;;;;;;5078549;28;20101;-59
2021/01/28 10:11:46;;;;;;;4.03;2.78;;;15.90;62.60;;;;;;5087074;28;20506;-60
2021/01/28 10:14:28;;;;;;;4.80;2.83;;;15.90;61.90;;;;;;5089470;28;20079;-60
2021/01/28 10:16:55;;;;;;;4.70;3.65;;;15.90;62.20;;;;;;5091577;28;20074;-60
2021/01/28 10:19:22;;;;;;;12.30;3.13;;;15.90;61.70;;;;;;5087353;28;20106;-61
2021/01/28 10:21:52;;;;;;;5.78;2.33;;;16.00;61.60;;;;;;5090141;28;20044;-61
2021/01/28 10:24:27;;;;;;;4.60;2.10;;;16.00;61.20;;;;;;5087251;28;20047;-60
2021/01/28 10:26:54;;;;;;;3.80;1.60;;;16.10;61.20;;;;;;5090306;28;20070;-60
2021/01/28 10:29:24;;;;;;;1.83;1.20;;;15.90;61.80;;;;;;5087153;28;20040;-60
2021/01/28 10:31:55;;;;;;;10.75;1.42;;;15.70;62.10;;;;;;5091434;28;20082;-61
2021/01/28 10:34:28;;;;;;;2.85;1.60;;;15.40;61.00;;;;;;5087355;28;20052;-60
2021/01/28 10:37:01;;;;;;;4.88;2.15;;;15.00;61.70;;;;;;5091550;28;20044;-60
2021/01/28 10:39:29;;;;;;;2.90;1.45;;;14.60;62.90;;;;;;5087005;28;20379;-62
2021/01/28 10:41:56;;;;;;;4.82;2.42;;;14.50;63.90;;;;;;5091034;28;20109;-61
2021/01/28 10:44:26;;;;;;;4.80;1.73;;;14.40;64.10;;;;;;5086624;28;20079;-61
2021/01/28 10:46:55;;;;;;;3.33;1.73;;;14.40;63.40;;;;;;5090947;28;20555;-61
2021/01/28 10:49:27;;;;;;;10.25;1.85;;;14.30;63.10;;;;;;5066702;28;20430;-60
2021/01/28 10:51:57;;;;;;;3.75;2.00;;;14.30;63.40;;;;;;5087544;28;20058;-60
2021/01/28 10:54:27;;;;;;;5.13;1.67;;;14.30;63.30;;;;;;5087120;28;20494;-60
2021/01/28 10:56:55;;;;;;;7.60;3.03;;;14.10;64.10;;;;;;5090913;28;20055;-60
2021/01/28 10:59:23;;;;;;;6.63;2.60;;;14.00;64.10;;;;;;5087974;28;20051;-60
2021/01/28 11:01:52;;;;;;;3.03;2.35;;;13.90;65.00;;;;;;5090535;28;20055;-60
2021/01/28 11:04:20;;;;;;;2.22;1.60;;;13.70;64.60;;;;;;5086883;28;20048;-60
2021/01/28 11:06:47;;;;;;;2.95;1.90;;;13.60;64.80;;;;;;5089589;28;20048;-59
2021/01/28 11:09:17;;;;;;;2.60;1.63;;;13.40;65.30;;;;;;5088620;28;20150;-61
2021/01/28 11:11:47;;;;;;;2.67;1.63;;;13.40;65.60;;;;;;5089685;28;20117;-60
2021/01/28 11:14:19;;;;;;;3.30;2.00;;;13.30;65.80;;;;;;5086855;28;20094;-61
2021/01/28 11:16:48;;;;;;;6.35;3.60;;;13.30;66.20;;;;;;5081683;28;20052;-60
2021/01/28 11:19:15;;;;;;;4.93;3.03;;;13.10;66.50;;;;;;5052861;28;20055;-60
2021/01/28 11:21:50;;;;;;;5.55;2.88;;;13.10;66.50;;;;;;5053244;28;20052;-60
2021/01/28 11:24:18;;;;;;;5.47;2.83;;;13.00;66.80;;;;;;5054697;28;20064;-60
2021/01/28 11:26:57;;;;;;;5.47;3.10;;;12.90;67.40;;;;;;5053515;28;20491;-61
2021/01/28 11:29:24;;;;;;;6.00;3.92;;;12.70;67.50;;;;;;5054536;28;20040;-60
2021/01/28 11:31:53;;;;;;;6.10;3.75;;;12.80;67.40;;;;;;5053907;28;20124;-61
2021/01/28 11:34:21;;;;;;;6.72;3.85;;;13.10;67.10;;;;;;5054070;28;20457;-61
2021/01/28 11:36:49;;;;;;;7.00;3.80;;;13.30;66.10;;;;;;5054389;28;20081;-61
2021/01/28 11:39:19;;;;;;;8.65;5.22;;;13.60;65.50;;;;;;5054570;28;20059;-60
2021/01/28 11:41:46;;;;;;;5.57;3.30;;;13.80;65.20;;;;;;5054558;28;20067;-61
2021/01/28 11:44:16;;;;;;;5.30;3.28;;;14.00;64.50;;;;;;5054117;28;20045;-60
2021/01/28 11:46:46;;;;;;;4.68;2.63;;;14.20;63.80;;;;;;5054242;28;20128;-60
2021/01/28 11:49:14;;;;;;;5.18;3.65;;;14.30;63.70;;;;;;5054509;28;20056;-60
2021/01/28 11:51:43;;;;;;;4.50;3.70;;;14.20;64.00;;;;;;5054334;28;20114;-60
2021/01/28 11:54:15;;;;;;;5.00;3.83;;;14.10;64.90;;;;;;5054075;28;20049;-60
2021/01/28 11:56:45;;;;;;;4.60;2.95;;;13.80;65.40;;;;;;5054134;28;20102;-60
2021/01/28 11:59:12;;;;;;;5.82;2.25;;;13.60;65.90;;;;;;5053984;28;20132;-60
2021/01/28 12:01:43;;;;;;;2.50;1.90;;;13.60;66.40;;;;;;5053948;28;20049;-60
2021/01/28 12:04:18;;;;;;;3.65;2.00;;;13.60;66.50;;;;;;5054026;28;20049;-60
2021/01/28 12:06:48;;;;;;;4.60;2.75;;;13.50;66.30;;;;;;5054052;28;20049;-60
2021/01/28 12:09:15;;;;;;;3.92;2.53;;;13.40;65.80;;;;;;5053835;28;20141;-60
2021/01/28 12:11:46;;;;;;;5.13;2.28;;;13.20;65.90;;;;;;5053695;28;20057;-60
2021/01/28 12:14:16;;;;;;;4.47;3.20;;;13.10;65.90;;;;;;5053649;28;20045;-61
2021/01/28 12:16:48;;;;;;;7.82;3.15;;;13.20;66.80;;;;;;5053837;28;20053;-60
2021/01/28 12:19:15;;;;;;;3.53;2.00;;;13.20;66.90;;;;;;5053652;28;20053;-60
2021/01/28 12:21:43;;;;;;;4.75;2.00;;;13.10;65.20;;;;;;5053803;28;20053;-60
2021/01/28 12:24:11;;;;;;;2.58;1.80;;;13.10;65.60;;;;;;5053714;28;20147;-60
2021/01/28 12:26:38;;;;;;;4.15;2.45;;;13.20;66.10;;;;;;5052205;28;20072;-60
2021/01/28 12:29:08;;;;;;;4.57;2.80;;;13.30;66.40;;;;;;5053621;28;20057;-60
2021/01/28 12:31:35;;;;;;;4.10;2.10;;;13.50;66.70;;;;;;5053555;28;20052;-61
2021/01/28 12:34:03;;;;;;;4.03;2.67;;;13.60;66.30;;;;;;5053168;28;20048;-61
2021/01/28 12:36:31;;;;;;;4.55;3.08;;;13.70;66.90;;;;;;5052052;28;20099;-61
2021/01/28 12:38:58;;;;;;;4.63;2.50;;;13.80;66.90;;;;;;5053497;28;20059;-60
2021/01/28 12:41:28;;;;;;;4.65;2.60;;;13.80;66.10;;;;;;5053191;28;20128;-60
2021/01/28 12:43:55;;;;;;;4.18;2.28;;;13.90;65.90;;;;;;5053244;28;20145;-61
2021/01/28 12:46:23;;;;;;;3.78;2.55;;;13.90;66.30;;;;;;5083971;28;20040;-61
2021/01/28 12:48:51;;;;;;;2.90;1.73;;;13.70;65.30;;;;;;5065721;28;20090;-61
2021/01/28 12:51:19;;;;;;;7.03;2.38;;;13.60;64.40;;;;;;5077003;28;20473;-61
2021/01/28 12:53:46;;;;;;;8.63;2.95;;;13.40;64.60;;;;;;5074678;28;20143;-60
2021/01/28 12:56:14;;;;;;;7.80;3.47;;;13.40;66.40;;;;;;5078438;28;20048;-61
2021/01/28 12:58:42;;;;;;;6.07;4.25;;;13.40;66.00;;;;;;5079773;28;20064;-61
2021/01/28 13:01:09;;;;;;;4.95;3.13;;;13.40;66.50;;;;;;5073160;28;20053;-61
2021/01/28 13:03:36;;;;;;;4.25;2.47;;;13.30;66.20;;;;;;5073078;28;20044;-60
2021/01/28 13:06:03;;;;;;;5.75;3.15;;;13.30;65.70;;;;;;5092633;28;20044;-60
2021/01/28 13:08:34;;;;;;;4.78;2.70;;;13.20;65.70;;;;;;5093190;28;20161;-60
2021/01/28 13:11:02;;;;;;;4.07;2.85;;;13.30;66.20;;;;;;5093167;28;20059;-60
2021/01/28 13:13:29;;;;;;;5.28;2.80;;;13.30;66.40;;;;;;5093532;28;20048;-60
2021/01/28 13:15:59;;;;;;;3.58;2.05;;;13.30;65.90;;;;;;5093167;28;20048;-60
2021/01/28 13:18:27;;;;;;;1.77;1.35;;;13.20;65.40;;;;;;5093146;28;20490;-60
2021/01/28 13:21:00;;;;;;;3.15;1.70;;;13.10;65.80;;;;;;5093115;28;20063;-60
2021/01/28 13:23:27;;;;;;;2.38;1.65;;;12.90;65.50;;;;;;5092988;28;20048;-60
2021/01/28 13:25:54;;;;;;;2.88;1.70;;;12.90;64.90;;;;;;5092103;28;20052;-60
2021/01/28 13:28:21;;;;;;;4.03;1.73;;;12.80;64.80;;;;;;5093229;28;20048;-60
2021/01/28 13:30:49;;;;;;;3.95;2.25;;;12.80;65.40;;;;;;5093165;28;20099;-60
2021/01/28 13:33:16;;;;;;;5.72;2.30;;;12.80;65.20;;;;;;5091805;28;20079;-60
2021/01/28 13:35:43;;;;;;;3.72;2.50;;;12.90;65.30;;;;;;5092873;28;20094;-60
2021/01/28 13:38:11;;;;;;;7.47;3.70;;;12.90;65.10;;;;;;5088928;28;20134;-60
2021/01/28 13:40:45;;;;;;;4.82;3.45;;;12.90;64.70;;;;;;5074993;28;20132;-60
2021/01/28 13:43:13;;;;;;;5.18;3.65;;;12.90;65.00;;;;;;5077560;28;20121;-60
2021/01/28 13:45:43;;;;;;;3.72;2.80;;;12.90;64.80;;;;;;5091641;28;20071;-60
2021/01/28 13:48:12;;;;;;;5.22;2.65;;;12.90;65.30;;;;;;5092873;28;20048;-60